Time;durP1;ratioP1;P1;durP2;ratioP2;P2;SDS_P1;SDS_P2;PMS_P1;PMS_P2;Temp;Humidity;BMP_temperature;BMP_pressure;BME280_temperature;BME280_humidity;BME280_pressure;Samples;Min_cycle;Max_cycle;Signal;HPM_P1;HPM_P2
2023/06/19 00:00:07;;;;;;;0.35;0.35;;;;;;;14.52;44.45;99393.00;4821673;29;20057;-81
2023/06/19 00:02:39;;;;;;;0.40;0.40;;;;;;;14.51;44.46;99392.19;4821872;29;20054;-81
2023/06/19 00:05:07;;;;;;;0.40;0.40;;;;;;;14.46;44.61;99391.34;4821311;29;20055;-81
2023/06/19 00:07:36;;;;;;;0.40;0.40;;;;;;;14.41;44.60;99392.13;4821700;29;20110;-80
2023/06/19 00:10:04;;;;;;;0.40;0.40;;;;;;;14.28;44.89;99392.53;4821786;29;20058;-81
2023/06/19 00:12:32;;;;;;;0.40;0.40;;;;;;;14.28;45.05;99393.38;4821467;29;20077;-81
2023/06/19 00:14:59;;;;;;;0.50;0.50;;;;;;;14.11;45.03;99384.53;4820462;29;20083;-81
2023/06/19 00:17:27;;;;;;;0.50;0.50;;;;;;;14.16;45.26;99386.50;4821072;29;20054;-81
2023/06/19 00:19:54;;;;;;;0.40;0.40;;;;;;;14.17;45.23;99388.94;4821458;29;20057;-81
2023/06/19 00:22:21;;;;;;;0.32;0.32;;;;;;;14.03;45.71;99376.88;4821232;29;20050;-81
2023/06/19 00:24:48;;;;;;;0.40;0.40;;;;;;;14.01;45.77;99387.16;4821392;29;20074;-81
2023/06/19 00:27:15;;;;;;;0.50;0.50;;;;;;;13.91;46.05;99378.94;4821047;29;20093;-80
2023/06/19 00:29:42;;;;;;;0.50;0.50;;;;;;;13.93;46.26;99388.47;4821341;29;20141;-81
2023/06/19 00:32:09;;;;;;;0.40;0.40;;;;;;;13.92;46.45;99386.00;4821122;29;20058;-81
2023/06/19 00:34:37;;;;;;;0.50;0.50;;;;;;;13.84;46.47;99385.38;4821184;29;20534;-81
2023/06/19 00:37:04;;;;;;;0.47;0.47;;;;;;;13.80;46.72;99391.56;4821324;29;20568;-81
2023/06/19 00:39:31;;;;;;;0.43;0.43;;;;;;;13.71;46.86;99387.69;4820930;29;20114;-81
2023/06/19 00:41:58;;;;;;;0.38;0.38;;;;;;;13.71;47.02;99384.97;4819988;29;20070;-81
2023/06/19 00:44:25;;;;;;;0.40;0.40;;;;;;;13.67;47.33;99390.06;4820720;29;20089;-81
2023/06/19 00:47:01;;;;;;;0.40;0.40;;;;;;;13.54;47.39;99380.44;4822319;29;20050;-81
2023/06/19 00:49:29;;;;;;;0.50;0.50;;;;;;;13.58;47.51;99394.34;4806520;29;20047;-82
2023/06/19 00:52:02;;;;;;;0.50;0.50;;;;;;;13.44;47.68;99388.47;4820105;29;20074;-80
2023/06/19 00:54:30;;;;;;;0.50;0.50;;;;;;;13.48;47.84;99392.34;4820610;29;20066;-81
2023/06/19 00:56:57;;;;;;;0.50;0.50;;;;;;;13.44;47.93;99397.44;4821070;29;20058;-81
2023/06/19 00:59:24;;;;;;;0.50;0.50;;;;;;;13.43;47.86;99400.41;4820659;29;20058;-80
2023/06/19 01:01:51;;;;;;;0.40;0.40;;;;;;;13.39;48.03;99399.25;4819748;29;20051;-80
2023/06/19 01:04:18;;;;;;;0.40;0.40;;;;;;;13.40;48.10;99403.63;4820590;29;20042;-80
2023/06/19 01:06:52;;;;;;;0.40;0.40;;;;;;;13.40;48.09;99406.34;4819701;29;20047;-80
2023/06/19 01:09:20;;;;;;;0.40;0.40;;;;;;;13.41;47.74;99400.66;4819523;29;20050;-81
2023/06/19 01:11:51;;;;;;;0.40;0.40;;;;;;;13.40;48.14;99407.16;4819534;29;20142;-81
2023/06/19 01:14:22;;;;;;;0.50;0.50;;;;;;;13.27;48.55;99394.00;4820734;29;20050;-82
2023/06/19 01:16:49;;;;;;;0.50;0.50;;;;;;;13.28;48.05;99394.81;4819465;29;20529;-81
2023/06/19 01:19:20;;;;;;;0.40;0.40;;;;;;;13.30;48.19;99398.91;4819464;29;20532;-82
2023/06/19 01:21:47;;;;;;;0.50;0.50;;;;;;;13.31;48.05;99400.53;4819540;29;20536;-81
2023/06/19 01:24:14;;;;;;;0.50;0.50;;;;;;;13.27;48.25;99399.41;4819154;29;20057;-81
2023/06/19 01:26:45;;;;;;;0.47;0.47;;;;;;;13.30;48.22;99398.91;4820801;29;20072;-81
2023/06/19 01:29:16;;;;;;;0.47;0.47;;;;;;;13.28;48.27;99401.03;4820510;29;20054;-81
2023/06/19 01:31:56;;;;;;;0.50;0.50;;;;;;;13.27;48.50;99396.69;4820635;29;20055;-79
2023/06/19 01:34:25;;;;;;;0.50;0.50;;;;;;;13.20;48.26;99386.00;4820765;29;20425;-81
2023/06/19 01:36:52;;;;;;;0.50;0.50;;;;;;;13.12;48.62;99382.94;4820736;29;20103;-81
2023/06/19 01:39:20;;;;;;;0.40;0.40;;;;;;;13.20;48.64;99399.56;4820348;29;20514;-81
2023/06/19 01:41:48;;;;;;;0.40;0.40;;;;;;;13.13;48.82;99389.97;4819438;29;20069;-81
2023/06/19 01:44:15;;;;;;;0.45;0.45;;;;;;;13.10;48.80;99391.31;4802146;29;20123;-82
2023/06/19 01:46:48;;;;;;;0.40;0.40;;;;;;;13.16;48.65;99394.88;4822224;29;20502;-80
2023/06/19 01:49:16;;;;;;;0.40;0.40;;;;;;;13.14;48.69;99391.59;4820966;29;20054;-81
2023/06/19 01:51:45;;;;;;;0.50;0.50;;;;;;;13.11;48.70;99389.41;4821293;29;20454;-81
2023/06/19 01:54:12;;;;;;;0.40;0.40;;;;;;;13.15;48.69;99395.97;4819666;29;20055;-81
2023/06/19 01:56:39;;;;;;;0.50;0.50;;;;;;;13.19;48.74;99402.50;4819733;29;20050;-81
2023/06/19 01:59:06;;;;;;;0.50;0.50;;;;;;;13.07;48.69;99383.69;4819882;29;20054;-81
2023/06/19 02:01:33;;;;;;;0.47;0.47;;;;;;;13.24;48.59;99405.28;4819971;29;20135;-81
2023/06/19 02:04:00;;;;;;;0.40;0.40;;;;;;;13.24;48.53;99397.16;4804785;29;20054;-82
2023/06/19 02:06:30;;;;;;;0.50;0.50;;;;;;;13.27;48.35;99402.13;4819576;29;20069;-81
2023/06/19 02:08:57;;;;;;;0.50;0.50;;;;;;;13.25;48.63;99403.41;4819830;29;20150;-80
2023/06/19 02:11:24;;;;;;;0.50;0.50;;;;;;;13.17;48.82;99391.94;4816297;29;20526;-81
2023/06/19 02:13:53;;;;;;;0.40;0.40;;;;;;;13.26;48.97;99403.16;4801546;29;20157;-80
2023/06/19 02:16:20;;;;;;;0.50;0.50;;;;;;;13.23;49.01;99393.63;4805443;29;20050;-81
2023/06/19 02:18:48;;;;;;;0.50;0.50;;;;;;;13.28;49.09;99403.75;4810000;29;20062;-82
2023/06/19 02:21:15;;;;;;;0.50;0.50;;;;;;;13.30;48.86;99401.59;4822496;29;20061;-81
2023/06/19 02:23:43;;;;;;;0.50;0.50;;;;;;;13.33;48.84;99403.00;4822686;29;20146;-82
2023/06/19 02:26:09;;;;;;;0.50;0.50;;;;;;;13.33;49.24;99401.09;4822402;29;20156;-83
2023/06/19 02:28:38;;;;;;;0.40;0.40;;;;;;;13.32;49.14;99385.91;4823743;29;20061;-81
2023/06/19 02:31:05;;;;;;;0.50;0.50;;;;;;;13.39;48.89;99389.25;4822510;29;20148;-82
2023/06/19 02:33:32;;;;;;;0.50;0.50;;;;;;;13.46;49.23;99391.75;4823517;29;20054;-80
2023/06/19 02:36:00;;;;;;;0.50;0.50;;;;;;;13.43;48.83;99386.84;4823682;29;20058;-81
2023/06/19 02:38:29;;;;;;;0.50;0.50;;;;;;;13.55;48.76;99400.28;4822162;29;20050;-81
2023/06/19 02:41:02;;;;;;;0.50;0.50;;;;;;;13.58;48.92;99388.91;4823660;29;20050;-81
2023/06/19 02:43:30;;;;;;;0.50;0.50;;;;;;;13.55;48.92;99392.94;4823597;29;20050;-82
2023/06/19 02:45:57;;;;;;;0.45;0.45;;;;;;;13.55;48.88;99386.72;4830698;29;20157;-81
2023/06/19 02:48:24;;;;;;;0.50;0.50;;;;;;;13.66;49.02;99393.88;4822014;29;20590;-81
2023/06/19 02:50:51;;;;;;;0.40;0.40;;;;;;;13.76;48.69;99393.97;4823470;29;20141;-81
2023/06/19 02:53:18;;;;;;;0.50;0.50;;;;;;;13.81;48.70;99394.03;4822998;29;20115;-81
2023/06/19 02:55:45;;;;;;;0.50;0.50;;;;;;;13.87;48.56;99390.31;4823210;29;20086;-81
2023/06/19 02:58:12;;;;;;;0.50;0.50;;;;;;;13.82;48.56;99384.00;4821800;29;20054;-81
2023/06/19 03:00:39;;;;;;;0.40;0.40;;;;;;;13.90;48.24;99388.13;4823387;29;20056;-82
2023/06/19 03:03:06;;;;;;;0.50;0.50;;;;;;;14.02;48.27;99391.50;4821933;29;20153;-81
2023/06/19 03:05:34;;;;;;;0.50;0.50;;;;;;;13.99;48.28;99376.56;4821952;29;20079;-81
2023/06/19 03:08:01;;;;;;;0.40;0.40;;;;;;;14.08;48.16;99383.16;4821726;29;20119;-82
2023/06/19 03:10:28;;;;;;;0.45;0.45;;;;;;;14.15;48.02;99385.66;4823479;29;20054;-82
2023/06/19 03:12:55;;;;;;;0.50;0.50;;;;;;;14.17;48.00;99372.63;4822108;29;20608;-81
2023/06/19 03:15:22;;;;;;;0.40;0.40;;;;;;;14.30;47.67;99391.22;4821901;29;20061;-82
2023/06/19 03:17:50;;;;;;;0.50;0.50;;;;;;;14.36;47.64;99388.56;4822205;29;20058;-81
2023/06/19 03:20:18;;;;;;;0.50;0.50;;;;;;;14.41;47.82;99389.41;4821801;29;20057;-80
2023/06/19 03:22:52;;;;;;;;;;;;;;;14.52;47.59;99393.00;4822656;29;20513;-82
2023/06/19 03:25:20;;;;;;;0.40;0.40;;;;;;;14.49;47.42;99396.25;4822378;29;20379;-82
2023/06/19 03:27:48;;;;;;;0.50;0.50;;;;;;;14.62;47.48;99398.53;4823070;29;20054;-81
2023/06/19 03:30:18;;;;;;;0.40;0.40;;;;;;;14.63;47.52;99402.06;4822823;29;20749;-82
2023/06/19 03:32:49;;;;;;;0.50;0.50;;;;;;;14.63;47.20;99383.06;4807266;29;20050;-81
2023/06/19 03:35:36;;;;;;;0.50;0.50;;;;;;;14.71;47.09;99394.25;4822526;29;20057;-81
2023/06/19 03:38:03;;;;;;;0.40;0.40;;;;;;;14.86;46.96;99412.56;4806397;29;20047;-80
2023/06/19 03:40:30;;;;;;;0.50;0.50;;;;;;;14.72;46.56;99379.59;4822494;29;20057;-84
2023/06/19 03:43:03;;;;;;;0.50;0.50;;;;;;;15.01;46.71;99409.09;4809858;29;20072;-81
2023/06/19 03:45:30;;;;;;;0.50;0.50;;;;;;;15.03;46.32;99404.22;4821004;29;20135;-81
2023/06/19 03:47:59;;;;;;;0.50;0.50;;;;;;;15.15;46.26;99406.72;4821192;29;20573;-82
2023/06/19 03:50:26;;;;;;;0.50;0.50;;;;;;;15.06;46.55;99397.44;4820935;29;20107;-82
2023/06/19 03:52:53;;;;;;;0.50;0.50;;;;;;;15.20;46.15;99398.59;4821151;29;20050;-82
2023/06/19 03:55:20;;;;;;;0.45;0.45;;;;;;;15.32;46.14;99420.13;4820813;29;20058;-82
2023/06/19 03:57:48;;;;;;;0.47;0.47;;;;;;;15.37;46.03;99407.38;4821300;29;20470;-81
2023/06/19 04:00:18;;;;;;;0.40;0.40;;;;;;;15.41;45.04;99398.66;4820839;29;20054;-82
2023/06/19 04:02:51;;;;;;;0.40;0.40;;;;;;;15.52;45.09;99393.00;4821148;29;20058;-82
2023/06/19 04:05:19;;;;;;;0.50;0.50;;;;;;;15.65;44.66;99410.72;4821681;29;20141;-81
2023/06/19 04:07:47;;;;;;;0.50;0.50;;;;;;;15.80;44.82;99412.69;4821021;29;20054;-83
2023/06/19 04:10:14;;;;;;;0.47;0.47;;;;;;;15.80;44.60;99409.97;4820656;29;20572;-82
2023/06/19 04:12:41;;;;;;;0.32;0.32;;;;;;;15.94;44.21;99416.50;4821771;29;20062;-82
2023/06/19 04:15:09;;;;;;;0.40;0.40;;;;;;;15.91;44.29;99392.56;4822135;29;20062;-83
2023/06/19 04:17:36;;;;;;;0.40;0.40;;;;;;;15.94;44.30;99389.28;4822370;29;20659;-82
2023/06/19 04:20:10;;;;;;;0.38;0.38;;;;;;;16.04;43.93;99397.47;4820657;29;20533;-82
2023/06/19 04:22:47;;;;;;;0.40;0.40;;;;;;;16.18;43.68;99403.22;4820930;29;20050;-82
2023/06/19 04:25:14;;;;;;;0.50;0.50;;;;;;;16.25;43.51;99414.66;4820618;29;20536;-82
2023/06/19 04:27:41;;;;;;;0.47;0.47;;;;;;;16.19;43.18;99391.22;4821910;29;20054;-83
2023/06/19 04:30:08;;;;;;;0.43;0.43;;;;;;;16.31;42.74;99385.50;4821636;29;20051;-83
2023/06/19 04:32:35;;;;;;;0.50;0.50;;;;;;;16.38;41.97;99383.34;4820594;29;20510;-83
2023/06/19 04:35:03;;;;;;;0.40;0.40;;;;;;;16.59;42.00;99396.94;4820573;29;20443;-82
2023/06/19 04:37:49;;;;;;;0.40;0.40;;;;;;;16.74;41.73;99407.81;4819936;29;20058;-82
2023/06/19 04:40:35;;;;;;;0.40;0.40;;;;;;;16.80;42.05;99405.91;4821943;29;20057;-82
2023/06/19 04:43:02;;;;;;;0.32;0.32;;;;;;;16.71;41.48;99392.03;4814896;29;20145;-83
2023/06/19 04:45:32;;;;;;;0.40;0.40;;;;;;;16.86;41.27;99407.53;4819854;29;20069;-82
2023/06/19 04:48:02;;;;;;;0.40;0.40;;;;;;;16.71;41.10;99374.81;4821447;29;20054;-82
2023/06/19 04:50:30;;;;;;;0.40;0.40;;;;;;;16.83;40.63;99386.28;4821264;29;20510;-81
2023/06/19 04:52:57;;;;;;;0.40;0.40;;;;;;;16.98;40.46;99407.25;4805123;29;20046;-82
2023/06/19 04:55:43;;;;;;;0.40;0.40;;;;;;;17.04;40.23;99409.69;4821136;29;20046;-82
2023/06/19 04:58:10;;;;;;;0.40;0.40;;;;;;;17.01;40.12;99402.03;4821146;29;20485;-82
2023/06/19 05:00:37;;;;;;;0.40;0.40;;;;;;;17.18;40.06;99401.72;4821409;29;20482;-82
2023/06/19 05:03:04;;;;;;;0.40;0.40;;;;;;;17.28;39.63;99398.13;4821663;29;20050;-82
2023/06/19 05:05:32;;;;;;;0.40;0.40;;;;;;;17.37;39.39;99404.66;4821345;29;20047;-82
2023/06/19 05:08:00;;;;;;;0.40;0.40;;;;;;;17.34;39.42;99394.28;4821450;29;20058;-81
2023/06/19 05:10:27;;;;;;;0.40;0.40;;;;;;;17.37;39.00;99384.72;4820144;29;20082;-83
2023/06/19 05:12:54;;;;;;;0.40;0.40;;;;;;;17.56;38.99;99407.56;4804508;29;20054;-83
2023/06/19 05:15:21;;;;;;;0.40;0.40;;;;;;;17.68;38.46;99408.03;4801644;29;20112;-82
2023/06/19 05:17:48;;;;;;;0.35;0.35;;;;;;;17.76;37.97;99401.97;4803017;29;20085;-82
2023/06/19 05:20:15;;;;;;;0.40;0.40;;;;;;;17.84;38.39;99407.97;4802431;29;20054;-83
2023/06/19 05:22:43;;;;;;;0.40;0.40;;;;;;;17.91;38.51;99403.84;4801823;29;20067;-82
2023/06/19 05:25:10;;;;;;;0.40;0.40;;;;;;;17.94;37.64;99403.25;4473408;29;10000400;-82
2023/06/19 05:27:38;;;;;;;0.40;0.40;;;;;;;17.93;37.59;99400.84;4805774;29;20058;-82
2023/06/19 05:30:08;;;;;;;0.40;0.40;;;;;;;17.90;37.59;99387.72;4802638;29;20111;-84
2023/06/19 05:32:35;;;;;;;0.50;0.50;;;;;;;17.91;37.30;99381.19;4795358;29;20047;-83
2023/06/19 05:35:03;;;;;;;0.40;0.40;;;;;;;18.10;37.00;99386.75;4803269;29;20083;-78
2023/06/19 05:37:30;;;;;;;0.40;0.40;;;;;;;18.17;36.66;99396.25;4805799;29;20047;-78
2023/06/19 05:39:57;;;;;;;0.40;0.40;;;;;;;18.14;36.15;99385.91;4808935;29;20078;-80
2023/06/19 05:42:24;;;;;;;0.40;0.40;;;;;;;18.17;35.97;99393.53;4815351;29;20062;-80
2023/06/19 05:44:51;;;;;;;0.40;0.40;;;;;;;18.10;35.64;99398.50;4805747;29;20086;-82
2023/06/19 05:47:20;;;;;;;0.40;0.40;;;;;;;18.01;35.56;99400.22;4804971;29;20061;-82
2023/06/19 05:49:48;;;;;;;0.40;0.40;;;;;;;18.10;35.96;99384.84;4799813;29;20135;-80
2023/06/19 05:52:15;;;;;;;0.40;0.40;;;;;;;18.18;35.63;99376.06;4804877;29;20065;-81
2023/06/19 05:54:42;;;;;;;0.40;0.40;;;;;;;18.36;35.60;99384.66;4811320;29;20055;-84
2023/06/19 05:57:11;;;;;;;0.40;0.40;;;;;;;18.19;35.43;99377.69;4808204;29;20059;-84
2023/06/19 05:59:38;;;;;;;0.40;0.40;;;;;;;18.45;35.50;99395.78;4810986;29;20058;-82
2023/06/19 06:02:06;;;;;;;0.40;0.40;;;;;;;18.58;35.30;99395.94;4805157;29;20059;-84
2023/06/19 06:04:34;;;;;;;0.40;0.40;;;;;;;18.53;35.36;99376.81;4813758;29;20506;-85
2023/06/19 06:07:01;;;;;;;0.30;0.30;;;;;;;18.68;35.10;99395.00;4814908;29;20062;-81
2023/06/19 06:09:47;;;;;;;0.40;0.40;;;;;;;18.62;35.20;99374.31;4803913;29;20055;-83
2023/06/19 06:12:14;;;;;;;0.40;0.40;;;;;;;18.75;35.07;99389.22;4804755;29;20084;-81
2023/06/19 06:14:41;;;;;;;0.40;0.40;;;;;;;18.83;34.89;99394.88;4803937;29;20051;-82
2023/06/19 06:17:08;;;;;;;0.30;0.30;;;;;;;18.94;34.81;99397.50;4804984;29;20051;-82
2023/06/19 06:20:13;;;;;;;0.40;0.40;;;;;;;19.05;34.26;99405.31;4805301;29;20054;-81
2023/06/19 06:25:27;;;;;;;0.40;0.40;;;;;;;18.97;35.07;99391.47;4815562;29;20050;-82
2023/06/19 06:27:54;;;;;;;0.40;0.40;;;;;;;19.04;35.72;99398.22;4808434;29;20055;-80
2023/06/19 06:30:21;;;;;;;0.40;0.40;;;;;;;19.11;35.15;99391.56;4804171;29;20063;-82
2023/06/19 06:32:49;;;;;;;0.40;0.40;;;;;;;19.22;35.67;99387.63;4806941;29;20069;-82
2023/06/19 06:35:16;;;;;;;0.40;0.40;;;;;;;19.38;35.82;99388.25;4820827;29;20115;-84
2023/06/19 06:37:44;;;;;;;0.40;0.40;;;;;;;19.42;34.85;99379.16;4807264;29;20059;-83
2023/06/19 06:40:11;;;;;;;0.35;0.35;;;;;;;19.47;35.29;99390.03;4814592;29;20059;-83
2023/06/19 06:42:57;;;;;;;0.40;0.40;;;;;;;19.46;35.38;99393.06;4821369;29;20047;-81
2023/06/19 06:45:25;;;;;;;0.40;0.40;;;;;;;19.36;35.34;99380.31;4822160;29;20066;-83
2023/06/19 06:47:53;;;;;;;0.40;0.40;;;;;;;19.38;35.38;99385.50;4808890;29;20054;-82
2023/06/19 06:50:21;;;;;;;0.40;0.40;;;;;;;19.38;35.27;99393.72;4804154;29;20134;-82
2023/06/19 06:52:49;;;;;;;0.40;0.40;;;;;;;19.45;35.55;99383.22;4804636;29;20417;-82
2023/06/19 06:55:34;;;;;;;0.32;0.32;;;;;;;19.46;34.65;99369.22;4802253;29;20063;-84
2023/06/19 06:58:02;;;;;;;0.30;0.30;;;;;;;19.47;34.68;99364.56;4804087;29;20085;-82
2023/06/19 07:00:29;;;;;;;0.40;0.40;;;;;;;19.59;34.69;99359.47;4809536;29;20093;-82
2023/06/19 07:02:56;;;;;;;0.40;0.40;;;;;;;19.75;34.30;99362.84;4821341;29;20081;-83
2023/06/19 07:05:23;;;;;;;0.30;0.30;;;;;;;19.69;34.51;99353.88;4822313;29;20210;-82
2023/06/19 07:07:50;;;;;;;0.30;0.30;;;;;;;19.73;34.07;99367.00;4822391;29;20054;-84
2023/06/19 07:10:17;;;;;;;0.40;0.40;;;;;;;19.75;34.07;99367.50;4806002;29;20245;-83
2023/06/19 07:12:46;;;;;;;0.40;0.40;;;;;;;19.68;33.15;99374.16;4805284;29;20046;-83
2023/06/19 07:15:13;;;;;;;0.40;0.40;;;;;;;19.71;33.76;99370.03;4837823;29;20050;-81
2023/06/19 07:17:58;;;;;;;0.40;0.40;;;;;;;19.90;33.53;99379.06;4839205;29;20050;-83
2023/06/19 07:20:25;;;;;;;0.40;0.40;;;;;;;19.86;33.32;99364.31;4809319;29;20062;-82
2023/06/19 07:22:53;;;;;;;0.40;0.40;;;;;;;19.79;33.62;99374.81;4808934;29;20073;-82
2023/06/19 07:25:20;;;;;;;0.30;0.30;;;;;;;19.77;33.54;99348.84;4804587;29;20427;-85
2023/06/19 07:27:47;;;;;;;0.35;0.35;;;;;;;19.90;33.52;99357.16;4814346;29;20051;-83
2023/06/19 07:30:14;;;;;;;0.40;0.40;;;;;;;20.22;33.52;99362.94;4804492;29;20047;-83
2023/06/19 07:32:46;;;;;;;0.40;0.40;;;;;;;20.25;32.48;99363.16;4805474;29;20051;-85
2023/06/19 07:35:13;;;;;;;0.40;0.40;;;;;;;20.10;32.97;99347.78;4804278;29;20648;-83
2023/06/19 07:37:40;;;;;;;0.40;0.40;;;;;;;20.10;32.68;99357.91;4813181;29;20075;-83
2023/06/19 07:40:08;;;;;;;0.30;0.30;;;;;;;20.16;32.83;99362.22;4807360;29;20090;-83
2023/06/19 07:42:35;;;;;;;0.40;0.40;;;;;;;20.28;32.44;99361.72;4818505;29;20058;-83
2023/06/19 07:45:03;;;;;;;0.40;0.40;;;;;;;20.49;33.07;99364.94;4816427;29;20093;-84
2023/06/19 07:47:30;;;;;;;0.40;0.40;;;;;;;20.74;32.45;99350.81;4812822;29;20063;-82
2023/06/19 07:49:57;;;;;;;0.40;0.40;;;;;;;21.07;31.47;99364.44;4808571;29;20051;-87
2023/06/19 07:52:25;;;;;;;0.40;0.40;;;;;;;21.18;31.18;99354.06;4808993;29;20057;-83
2023/06/19 07:54:56;;;;;;;0.40;0.40;;;;;;;21.04;31.31;99345.84;4813206;29;20108;-83
2023/06/19 07:57:25;;;;;;;0.40;0.40;;;;;;;21.25;31.22;99350.91;4812251;29;20058;-84
2023/06/19 07:59:53;;;;;;;0.50;0.50;;;;;;;21.32;30.77;99352.09;4807519;29;20055;-83
2023/06/19 08:02:21;;;;;;;0.43;0.43;;;;;;;21.36;30.80;99357.78;4818790;29;20403;-85
2023/06/19 08:04:48;;;;;;;0.45;0.45;;;;;;;21.41;30.82;99346.72;4810320;29;20077;-82
2023/06/19 08:07:16;;;;;;;0.40;0.40;;;;;;;21.64;30.96;99342.91;4825157;29;20115;-84
2023/06/19 08:09:43;;;;;;;0.40;0.40;;;;;;;21.86;29.80;99342.13;4803790;29;20055;-88
2023/06/19 08:12:10;;;;;;;0.40;0.40;;;;;;;21.94;29.58;99332.31;4806473;29;20082;-84
2023/06/19 08:14:38;;;;;;;0.50;0.50;;;;;;;22.14;29.56;99339.25;4804611;29;20791;-83
2023/06/19 08:17:06;;;;;;;0.50;0.50;;;;;;;22.20;28.59;99338.03;4801729;29;20055;-85
2023/06/19 08:19:33;;;;;;;0.40;0.40;;;;;;;22.21;28.47;99347.09;4810640;29;20051;-82
2023/06/19 08:22:00;;;;;;;0.50;0.50;;;;;;;22.39;28.84;99342.53;4797758;29;20047;-83
2023/06/19 08:24:27;;;;;;;0.50;0.50;;;;;;;22.50;28.95;99313.63;4809680;29;20082;-84
2023/06/19 08:26:54;;;;;;;0.50;0.50;;;;;;;22.36;27.96;99338.47;4816170;29;20069;-84
2023/06/19 08:29:22;;;;;;;0.50;0.50;;;;;;;22.55;28.87;99351.16;4815167;29;20050;-83
2023/06/19 08:31:49;;;;;;;0.50;0.50;;;;;;;22.62;27.64;99348.78;4809151;29;20145;-82
2023/06/19 08:39:47;;;;;;;0.50;0.50;;;;;;;23.36;27.45;99339.81;4810873;29;20191;-84
2023/06/19 08:42:14;;;;;;;0.50;0.50;;;;;;;23.93;26.86;99333.44;4802058;29;20051;-84
2023/06/19 08:44:41;;;;;;;0.50;0.50;;;;;;;23.79;25.90;99323.34;4807305;29;20079;-82
2023/06/19 08:47:27;;;;;;;0.50;0.50;;;;;;;23.70;26.87;99325.28;4821359;29;20574;-84
2023/06/19 08:49:54;;;;;;;0.40;0.40;;;;;;;24.01;26.06;99329.84;4821811;29;20085;-84
2023/06/19 08:52:21;;;;;;;0.40;0.40;;;;;;;24.18;26.35;99334.50;4821097;29;20075;-83
2023/06/19 08:54:48;;;;;;;0.50;0.50;;;;;;;24.11;26.60;99314.91;4820260;29;20064;-84
2023/06/19 08:57:15;;;;;;;0.50;0.50;;;;;;;24.32;26.96;99309.50;4821449;29;20050;-83
2023/06/19 09:02:42;;;;;;;0.40;0.40;;;;;;;24.74;25.90;99327.09;4821639;29;20429;-84
2023/06/19 09:05:50;;;;;;;0.50;0.50;;;;;;;25.47;25.09;99315.81;4821420;29;20382;-84
2023/06/19 09:08:20;;;;;;;0.50;0.50;;;;;;;25.63;24.76;99307.72;4819424;29;20054;-85
2023/06/19 09:11:06;;;;;;;0.50;0.50;;;;;;;25.65;24.26;99319.25;4817182;29;20055;-84
2023/06/19 09:13:36;;;;;;;0.50;0.50;;;;;;;25.04;24.63;99303.06;4803271;29;20518;-85
2023/06/19 09:16:08;;;;;;;0.50;0.50;;;;;;;25.33;24.33;99304.22;4802708;29;20063;-84
2023/06/19 09:21:35;;;;;;;0.57;0.57;;;;;;;25.62;23.62;99305.28;4803224;29;20054;-84
2023/06/19 09:24:07;;;;;;;0.50;0.50;;;;;;;26.06;23.43;99300.22;4803339;29;20667;-84
2023/06/19 09:26:35;;;;;;;0.50;0.50;;;;;;;26.96;22.68;99309.59;4805262;29;20112;-85
2023/06/19 09:35:26;;;;;;;0.40;0.40;;;;;;;27.77;20.84;99291.09;4831883;29;20068;-84
2023/06/19 09:38:12;;;;;;;0.50;0.50;;;;;;;28.28;20.53;99294.13;4824844;29;20072;-84
2023/06/19 09:40:40;;;;;;;0.50;0.50;;;;;;;28.30;21.02;99291.00;4823348;29;20058;-85
2023/06/19 09:43:37;;;;;;;0.50;0.50;;;;;;;28.52;21.02;99295.16;4823439;29;20096;-85
2023/06/19 09:46:05;;;;;;;0.50;0.50;;;;;;;28.53;20.50;99294.78;4823761;29;20115;-83
2023/06/19 09:49:10;;;;;;;0.50;0.50;;;;;;;28.05;21.31;99287.53;4815007;29;20514;-84
2023/06/19 09:52:14;;;;;;;0.40;0.40;;;;;;;27.99;20.33;99278.69;4806305;29;20050;-85
2023/06/19 09:55:02;;;;;;;0.50;0.50;;;;;;;27.51;20.71;99265.81;4806223;29;20116;-85
2023/06/19 09:57:30;;;;;;;0.50;0.50;;;;;;;28.44;20.45;99296.13;4805892;29;20055;-86
2023/06/19 09:59:58;;;;;;;0.50;0.50;;;;;;;28.84;19.15;99284.84;4809219;29;20058;-84
2023/06/19 10:02:58;;;;;;;0.50;0.50;;;;;;;28.64;19.14;99283.19;4811685;29;20065;-84
2023/06/19 10:05:44;;;;;;;0.50;0.50;;;;;;;28.29;19.00;99290.19;4805421;29;20059;-85
2023/06/19 10:08:11;;;;;;;0.45;0.45;;;;;;;28.41;18.87;99278.22;4815252;29;20064;-85
2023/06/19 10:10:57;;;;;;;0.40;0.40;;;;;;;29.18;18.27;99282.50;4808436;29;20430;-84
2023/06/19 10:13:35;;;;;;;0.50;0.50;;;;;;;29.67;18.08;99276.41;4802810;29;20155;-84
2023/06/19 10:21:44;;;;;;;0.43;0.43;;;;;;;30.08;17.21;99251.78;4801597;29;20059;-83
2023/06/19 10:24:17;;;;;;;0.45;0.45;;;;;;;30.50;18.01;99264.88;4802446;29;20117;-84
2023/06/19 10:29:57;;;;;;;0.50;0.50;;;;;;;30.29;16.82;99245.03;4810619;29;20060;-85
2023/06/19 10:32:34;;;;;;;0.45;0.45;;;;;;;30.48;17.13;99246.94;4810393;29;20058;-83
2023/06/19 10:35:11;;;;;;;0.40;0.40;;;;;;;30.76;16.74;99246.56;4816440;29;20050;-82
2023/06/19 10:37:57;;;;;;;0.40;0.40;;;;;;;31.23;16.91;99259.25;4818585;29;20146;-80
2023/06/19 10:40:24;;;;;;;0.40;0.40;;;;;;;31.14;16.93;99250.34;4817205;29;20069;-82
2023/06/19 10:43:10;;;;;;;0.40;0.40;;;;;;;30.67;17.70;99230.16;4811472;29;20551;-84
2023/06/19 10:48:24;;;;;;;0.40;0.40;;;;;;;30.03;17.56;99250.13;4812677;29;20493;-85
2023/06/19 10:50:51;;;;;;;0.40;0.40;;;;;;;30.23;17.64;99256.44;4807778;29;20054;-82
2023/06/19 10:53:48;;;;;;;0.40;0.40;;;;;;;30.38;17.53;99234.44;4813467;29;20063;-85
2023/06/19 10:56:15;;;;;;;0.40;0.40;;;;;;;31.07;16.72;99249.09;4811877;29;20161;-83
2023/06/19 10:58:43;;;;;;;0.40;0.40;;;;;;;31.54;16.49;99249.72;4813634;29;20099;-84
2023/06/19 11:01:11;;;;;;;0.40;0.40;;;;;;;31.67;15.78;99228.75;4805223;29;20063;-83
2023/06/19 11:06:44;;;;;;;0.40;0.40;;;;;;;32.07;16.25;99245.97;4815918;29;20061;-84
2023/06/19 11:09:12;;;;;;;0.40;0.40;;;;;;;31.65;16.35;99244.25;4808908;29;20116;-85
2023/06/19 11:11:59;;;;;;;0.40;0.40;;;;;;;31.60;16.55;99225.06;4816751;29;20070;-84
2023/06/19 11:14:39;;;;;;;0.40;0.40;;;;;;;31.49;16.35;99236.09;4806482;29;20058;-85
2023/06/19 11:17:06;;;;;;;0.40;0.40;;;;;;;31.91;15.89;99249.75;4809149;29;20134;-83
2023/06/19 11:19:52;;;;;;;0.40;0.40;;;;;;;31.99;16.14;99241.50;4808000;29;21185;-84
2023/06/19 11:22:20;;;;;;;0.47;0.47;;;;;;;32.41;15.26;99227.13;4818075;29;20066;-83
2023/06/19 11:24:48;;;;;;;0.40;0.40;;;;;;;32.96;15.21;99243.91;4815361;29;20118;-82
2023/06/19 11:27:34;;;;;;;0.40;0.40;;;;;;;33.55;15.11;99237.47;4812655;29;20391;-83
2023/06/19 11:30:04;;;;;;;0.40;0.40;;;;;;;33.59;14.58;99224.31;4814213;29;20054;-84
2023/06/19 11:32:40;;;;;;;0.40;0.40;;;;;;;33.39;14.01;99215.41;4828961;29;20046;-83
2023/06/19 11:35:45;;;;;;;0.40;0.40;;;;;;;32.93;14.81;99221.53;4818407;29;20054;-83
2023/06/19 11:38:17;;;;;;;0.40;0.40;;;;;;;32.73;14.34;99216.22;4811713;29;20144;-83
2023/06/19 11:41:03;;;;;;;0.40;0.40;;;;;;;33.07;14.79;99195.69;4823459;29;20050;-83
2023/06/19 11:43:31;;;;;;;0.40;0.40;;;;;;;33.60;14.42;99198.75;4800890;29;20145;-82
2023/06/19 11:46:03;;;;;;;0.40;0.40;;;;;;;34.04;14.00;99189.22;4807578;29;20074;-82
2023/06/19 11:48:31;;;;;;;0.33;0.33;;;;;;;33.36;13.82;99222.59;4807884;29;20051;-83
2023/06/19 11:51:18;;;;;;;0.40;0.40;;;;;;;33.02;15.12;99213.66;4815758;29;20145;-81
2023/06/19 11:53:46;;;;;;;0.40;0.40;;;;;;;32.98;14.57;99188.44;4801841;29;20169;-81
2023/06/19 11:56:14;;;;;;;0.40;0.40;;;;;;;33.46;14.67;99199.47;4809727;29;20051;-83
2023/06/19 11:59:19;;;;;;;0.30;0.30;;;;;;;33.61;14.38;99208.72;4811497;29;20050;-82
2023/06/19 12:01:47;;;;;;;0.40;0.40;;;;;;;32.94;14.18;99200.78;4796519;29;20157;-82
2023/06/19 12:04:14;;;;;;;0.32;0.32;;;;;;;33.10;15.40;99206.91;4812192;29;20051;-81
2023/06/19 12:12:13;;;;;;;0.30;0.30;;;;;;;33.07;14.78;99181.69;4810046;29;20054;-81
2023/06/19 12:18:03;;;;;;;0.40;0.40;;;;;;;33.45;14.70;99194.28;4806639;29;20114;-82
2023/06/19 12:20:31;;;;;;;0.40;0.40;;;;;;;33.63;14.24;99189.56;4806679;29;20061;-81
2023/06/19 12:23:16;;;;;;;0.40;0.40;;;;;;;34.71;13.58;99189.66;4802055;29;20056;-81
2023/06/19 12:26:02;;;;;;;0.38;0.38;;;;;;;34.77;14.14;99178.81;4803656;29;20083;-80
2023/06/19 12:28:30;;;;;;;0.30;0.30;;;;;;;34.22;14.50;99161.25;4803431;29;20153;-81
2023/06/19 12:31:16;;;;;;;0.20;0.20;;;;;;;33.15;14.59;99172.97;4814807;29;20050;-81
2023/06/19 12:36:49;;;;;;;0.30;0.30;;;;;;;32.96;15.38;99159.25;4808993;29;20103;-82